Time;durP1;ratioP1;P1;durP2;ratioP2;P2;SDS_P1;SDS_P2;PMS_P1;PMS_P2;Temp;Humidity;BMP_temperature;BMP_pressure;BME280_temperature;BME280_humidity;BME280_pressure;Samples;Min_cycle;Max_cycle;Signal;HPM_P1;HPM_P2
2023/09/24 00:00:13;;;;;;;6.00;3.73;;;12.70;99.90;;;;;;4873019;29;20606;-65
2023/09/24 00:02:40;;;;;;;5.17;3.57;;;12.70;99.90;;;;;;4888824;29;20787;-65
2023/09/24 00:05:08;;;;;;;4.47;3.20;;;12.80;99.90;;;;;;4871870;29;20288;-65
2023/09/24 00:07:36;;;;;;;4.33;3.33;;;12.70;99.90;;;;;;4889511;29;20590;-65
2023/09/24 00:10:03;;;;;;;5.47;3.73;;;12.70;99.90;;;;;;4878259;29;20331;-65
2023/09/24 00:12:31;;;;;;;7.93;3.60;;;12.70;99.90;;;;;;4877777;29;20202;-67
2023/09/24 00:14:58;;;;;;;4.93;3.73;;;12.70;99.90;;;;;;4876985;29;20261;-68
2023/09/24 00:17:26;;;;;;;6.90;3.70;;;12.60;99.90;;;;;;4874943;29;20667;-64
2023/09/24 00:19:54;;;;;;;4.67;3.17;;;12.50;99.90;;;;;;4872779;29;20203;-68
2023/09/24 00:22:20;;;;;;;10.27;3.57;;;12.50;99.90;;;;;;4851226;29;20577;-63
2023/09/24 00:24:49;;;;;;;5.63;3.43;;;12.50;99.90;;;;;;4861285;29;20218;-61
2023/09/24 00:27:16;;;;;;;5.23;3.20;;;12.50;99.90;;;;;;4881125;29;20695;-63
2023/09/24 00:29:43;;;;;;;5.43;3.93;;;12.50;99.90;;;;;;4858746;29;20206;-62
2023/09/24 00:32:10;;;;;;;11.50;4.83;;;12.40;99.90;;;;;;4873188;29;20234;-64
2023/09/24 00:34:38;;;;;;;10.47;3.97;;;12.40;99.90;;;;;;4872760;29;20210;-64
2023/09/24 00:37:06;;;;;;;6.13;3.50;;;12.50;99.90;;;;;;4852969;29;20246;-65
2023/09/24 00:39:32;;;;;;;8.47;3.83;;;12.40;99.90;;;;;;4874231;29;20608;-66
2023/09/24 00:42:00;;;;;;;5.57;3.73;;;12.40;99.90;;;;;;4879503;29;20194;-65
2023/09/24 00:44:27;;;;;;;8.73;3.87;;;12.50;99.90;;;;;;4869439;29;20296;-66
2023/09/24 00:46:55;;;;;;;4.73;3.50;;;12.40;99.90;;;;;;4878911;29;20619;-66
2023/09/24 00:49:23;;;;;;;8.73;3.60;;;12.40;99.90;;;;;;4879948;29;20670;-66
2023/09/24 00:51:50;;;;;;;4.23;3.40;;;12.40;99.90;;;;;;4881254;29;20197;-71
2023/09/24 00:54:17;;;;;;;7.63;3.77;;;12.60;99.90;;;;;;4870667;29;20208;-70
2023/09/24 00:56:45;;;;;;;7.30;4.00;;;12.60;99.90;;;;;;4858084;29;20198;-66
2023/09/24 00:59:12;;;;;;;8.63;3.80;;;12.50;99.90;;;;;;4859012;29;20304;-70
2023/09/24 01:01:40;;;;;;;9.47;3.93;;;12.40;99.90;;;;;;4870524;29;20296;-68
2023/09/24 01:04:10;;;;;;;5.40;3.33;;;12.40;99.90;;;;;;4881045;29;20185;-68
2023/09/24 01:06:39;;;;;;;8.97;3.67;;;12.20;99.90;;;;;;4875755;29;20560;-69
2023/09/24 01:09:08;;;;;;;5.93;3.33;;;12.10;99.90;;;;;;4882320;29;20702;-68
2023/09/24 01:11:37;;;;;;;10.17;4.53;;;12.00;99.90;;;;;;4879334;29;20198;-68
2023/09/24 01:14:07;;;;;;;9.50;3.40;;;11.90;99.90;;;;;;4865231;29;20233;-68
2023/09/24 01:16:37;;;;;;;6.37;3.47;;;11.90;99.90;;;;;;4886345;29;20202;-68
2023/09/24 01:19:07;;;;;;;7.60;4.07;;;11.80;99.90;;;;;;4887669;29;20226;-67
2023/09/24 01:21:36;;;;;;;6.97;3.87;;;11.80;99.90;;;;;;4879444;29;20229;-67
2023/09/24 01:24:06;;;;;;;7.77;4.13;;;11.60;99.90;;;;;;4878878;29;20268;-67
2023/09/24 01:26:34;;;;;;;5.37;4.37;;;11.60;99.90;;;;;;4879183;29;20310;-66
2023/09/24 01:29:02;;;;;;;9.10;4.80;;;11.50;99.90;;;;;;4875684;29;20301;-67
2023/09/24 01:31:31;;;;;;;6.57;4.47;;;11.50;99.90;;;;;;4877778;29;20209;-66
2023/09/24 01:33:59;;;;;;;10.03;5.47;;;11.40;99.90;;;;;;4877976;29;20217;-68
2023/09/24 01:36:27;;;;;;;7.97;4.70;;;11.30;99.90;;;;;;4878341;29;20232;-63
2023/09/24 01:38:54;;;;;;;6.53;4.40;;;11.30;99.90;;;;;;4879370;29;20253;-64
2023/09/24 01:41:22;;;;;;;9.30;4.77;;;11.20;99.90;;;;;;4879817;29;20214;-65
2023/09/24 01:43:50;;;;;;;6.50;4.00;;;11.20;99.90;;;;;;4877238;29;20305;-64
2023/09/24 01:46:20;;;;;;;7.03;4.60;;;11.20;99.90;;;;;;4877080;29;20201;-63
2023/09/24 01:48:49;;;;;;;9.20;4.17;;;11.20;99.90;;;;;;4871997;29;20242;-63
2023/09/24 01:51:17;;;;;;;7.73;3.90;;;11.30;99.90;;;;;;4875418;29;20237;-68
2023/09/24 01:53:43;;;;;;;7.03;3.90;;;11.40;99.90;;;;;;4890496;29;20305;-63
2023/09/24 01:56:13;;;;;;;8.00;3.70;;;11.40;99.90;;;;;;4897520;29;20198;-64
2023/09/24 01:58:40;;;;;;;5.30;3.80;;;11.30;99.90;;;;;;4862590;29;20282;-63
2023/09/24 02:05:09;;;;;;;4.90;3.57;;;11.20;99.90;;;;;;4872883;29;20176;-64
2023/09/24 02:07:38;;;;;;;5.63;4.37;;;11.10;99.90;;;;;;4872990;29;20195;-62
2023/09/24 02:10:06;;;;;;;6.00;3.27;;;11.00;99.90;;;;;;4891828;29;20204;-65
2023/09/24 02:12:39;;;;;;;4.83;3.63;;;11.00;99.90;;;;;;4879205;29;20223;-65
2023/09/24 02:15:12;;;;;;;6.37;3.60;;;10.90;99.90;;;;;;4876828;29;20237;-66
2023/09/24 02:17:42;;;;;;;6.57;3.80;;;10.90;99.90;;;;;;4885686;29;20293;-67
2023/09/24 02:22:52;;;;;;;8.20;3.70;;;10.70;99.90;;;;;;4877095;29;20452;-65
2023/09/24 02:25:20;;;;;;;7.27;3.97;;;10.70;99.90;;;;;;4892595;29;20667;-65
2023/09/24 02:27:50;;;;;;;4.77;3.30;;;10.70;99.90;;;;;;4878891;29;20201;-68
2023/09/24 02:30:20;;;;;;;11.30;3.93;;;10.70;99.90;;;;;;4886720;29;20568;-64
2023/09/24 02:32:48;;;;;;;6.83;4.03;;;10.60;99.90;;;;;;4879298;29;20209;-64
2023/09/24 02:35:16;;;;;;;4.13;3.53;;;10.60;99.90;;;;;;4868574;29;20249;-64
2023/09/24 02:37:45;;;;;;;5.77;3.63;;;10.60;99.90;;;;;;4859776;29;20286;-64
2023/09/24 02:40:30;;;;;;;9.33;3.50;;;10.60;99.90;;;;;;4893900;29;20304;-65
2023/09/24 02:42:59;;;;;;;7.60;5.00;;;10.60;99.90;;;;;;4869701;29;20237;-65
2023/09/24 02:45:28;;;;;;;10.47;3.90;;;10.50;99.90;;;;;;4869318;29;20667;-64
2023/09/24 02:47:56;;;;;;;5.60;3.50;;;10.60;99.90;;;;;;4871949;29;20213;-65
2023/09/24 02:50:26;;;;;;;6.67;3.90;;;10.50;99.90;;;;;;4892937;29;20663;-64
2023/09/24 02:52:58;;;;;;;7.90;3.80;;;10.50;99.90;;;;;;4878335;29;20240;-65
2023/09/24 02:55:29;;;;;;;7.60;3.80;;;10.40;99.90;;;;;;4884284;29;20684;-68
2023/09/24 02:57:56;;;;;;;5.60;4.47;;;10.40;99.90;;;;;;4875001;29;20194;-68
2023/09/24 03:02:59;;;;;;;5.33;3.80;;;10.20;99.90;;;;;;4887129;29;20196;-69
2023/09/24 03:05:28;;;;;;;9.50;3.80;;;10.30;99.90;;;;;;4875450;29;20194;-70
2023/09/24 03:07:59;;;;;;;4.27;3.17;;;10.20;99.90;;;;;;4888859;29;20655;-75
2023/09/24 03:10:29;;;;;;;8.30;4.13;;;10.20;99.90;;;;;;4877204;29;20638;-74
2023/09/24 03:12:57;;;;;;;9.10;5.07;;;10.20;99.90;;;;;;4882481;29;20194;-73
2023/09/24 03:15:25;;;;;;;6.20;4.30;;;10.10;99.90;;;;;;4868046;29;20242;-71
2023/09/24 03:17:53;;;;;;;7.97;4.27;;;10.20;99.90;;;;;;4888614;29;20202;-68
2023/09/24 03:20:21;;;;;;;6.00;3.80;;;10.10;99.90;;;;;;4875038;29;20193;-66
2023/09/24 03:22:49;;;;;;;6.97;4.30;;;10.10;99.90;;;;;;4868047;29;20221;-66
2023/09/24 03:25:22;;;;;;;5.73;3.73;;;10.10;1.00;;;;;;4881440;29;20214;-67
2023/09/24 03:27:52;;;;;;;6.57;3.77;;;10.00;1.00;;;;;;4889794;29;20245;-67
2023/09/24 03:30:20;;;;;;;7.53;4.43;;;10.00;1.00;;;;;;4876867;29;20213;-68
2023/09/24 03:32:49;;;;;;;9.10;4.70;;;10.00;1.00;;;;;;4876368;29;20262;-69
2023/09/24 03:35:23;;;;;;;8.87;4.50;;;9.90;1.00;;;;;;4872776;29;20270;-67
2023/09/24 03:37:52;;;;;;;6.40;4.80;;;10.10;1.00;;;;;;4882702;29;20209;-66
2023/09/24 03:40:23;;;;;;;15.83;5.90;;;10.20;1.00;;;;;;4878314;29;20268;-66
2023/09/24 03:42:52;;;;;;;10.60;4.40;;;10.20;1.00;;;;;;4891405;29;20209;-65
2023/09/24 03:45:20;;;;;;;7.90;4.53;;;10.10;1.00;;;;;;4864212;29;20202;-65
2023/09/24 03:47:48;;;;;;;8.90;4.50;;;10.00;1.00;;;;;;4875386;29;20697;-69
2023/09/24 03:50:17;;;;;;;10.60;4.23;;;9.90;1.00;;;;;;4870106;29;20253;-71
2023/09/24 03:52:46;;;;;;;7.83;3.87;;;9.80;1.00;;;;;;4856291;29;20282;-66
2023/09/24 03:55:16;;;;;;;4.83;3.97;;;9.80;1.00;;;;;;4871964;29;20659;-65
2023/09/24 03:57:44;;;;;;;6.77;4.00;;;9.70;1.00;;;;;;4872895;29;20206;-79
2023/09/24 04:00:15;;;;;;;7.77;4.70;;;9.70;1.00;;;;;;4890928;29;20217;-66
2023/09/24 04:02:46;;;;;;;13.17;4.70;;;9.60;1.00;;;;;;4879465;29;20221;-69
2023/09/24 04:05:18;;;;;;;8.47;4.20;;;9.70;1.00;;;;;;4877331;29;20674;-68
2023/09/24 04:07:52;;;;;;;7.70;5.00;;;9.60;1.00;;;;;;4871159;29;20726;-70
2023/09/24 04:10:21;;;;;;;6.80;4.80;;;9.60;1.00;;;;;;4871880;29;20707;-73
2023/09/24 04:12:52;;;;;;;8.03;4.60;;;9.60;1.00;;;;;;4875887;29;20202;-66
2023/09/24 04:15:21;;;;;;;8.60;4.20;;;9.50;1.00;;;;;;4879292;29;20273;-68
2023/09/24 04:17:49;;;;;;;10.60;4.90;;;9.50;1.00;;;;;;4874642;29;20238;-71
2023/09/24 04:20:19;;;;;;;6.17;5.00;;;9.50;1.00;;;;;;4891810;29;20202;-65
2023/09/24 04:22:48;;;;;;;6.73;4.60;;;9.40;1.00;;;;;;4875656;29;20214;-68
2023/09/24 04:25:20;;;;;;;6.03;3.83;;;9.40;1.00;;;;;;4866655;29;20285;-67
2023/09/24 04:27:48;;;;;;;10.93;4.63;;;9.40;1.00;;;;;;4869438;29;20458;-67
2023/09/24 04:30:17;;;;;;;6.53;4.10;;;9.30;1.00;;;;;;4871123;29;20221;-69
2023/09/24 04:32:48;;;;;;;6.63;4.23;;;9.30;1.00;;;;;;4876157;29;20214;-66
2023/09/24 04:35:27;;;;;;;10.23;4.27;;;9.20;1.00;;;;;;4887275;29;20206;-65
2023/09/24 04:37:55;;;;;;;7.33;4.10;;;9.30;1.00;;;;;;4898503;29;20618;-66
2023/09/24 04:40:23;;;;;;;7.47;4.30;;;9.30;1.00;;;;;;4873296;29;20206;-65
2023/09/24 04:42:51;;;;;;;9.43;4.50;;;9.30;1.00;;;;;;4872519;29;20272;-65
2023/09/24 04:45:18;;;;;;;5.43;4.37;;;9.20;1.00;;;;;;4865078;29;20206;-70
2023/09/24 04:47:46;;;;;;;5.83;3.87;;;9.20;1.00;;;;;;4875911;29;20200;-70
2023/09/24 04:50:13;;;;;;;8.53;4.20;;;9.20;1.00;;;;;;4872304;29;20228;-69
2023/09/24 04:52:47;;;;;;;9.03;4.20;;;9.20;1.00;;;;;;4891229;29;20284;-68
2023/09/24 04:55:14;;;;;;;6.20;4.50;;;9.20;1.00;;;;;;4874756;29;20293;-72
2023/09/24 04:57:45;;;;;;;7.27;4.67;;;9.10;1.00;;;;;;4867120;29;20275;-68
2023/09/24 05:00:14;;;;;;;8.50;5.03;;;9.10;1.00;;;;;;4866409;29;20233;-69
2023/09/24 05:02:42;;;;;;;7.93;4.30;;;9.10;1.00;;;;;;4883631;29;20205;-71
2023/09/24 05:05:10;;;;;;;9.60;6.10;;;9.10;1.00;;;;;;4866102;29;20205;-68
2023/09/24 05:07:37;;;;;;;9.37;5.30;;;9.10;1.00;;;;;;4864785;29;20202;-69
2023/09/24 05:10:05;;;;;;;6.20;4.33;;;9.00;1.00;;;;;;4876068;29;20220;-67
2023/09/24 05:12:32;;;;;;;5.47;4.13;;;9.00;1.00;;;;;;4890100;29;20659;-68
2023/09/24 05:14:59;;;;;;;6.97;4.60;;;9.00;1.00;;;;;;4867101;29;20282;-66
2023/09/24 05:17:26;;;;;;;7.00;4.43;;;9.00;1.00;;;;;;4872191;29;20679;-66
2023/09/24 05:19:54;;;;;;;5.90;4.33;;;9.10;1.00;;;;;;4875131;29;20297;-66
2023/09/24 05:22:23;;;;;;;5.90;4.40;;;9.10;1.00;;;;;;4883330;29;20206;-66
2023/09/24 05:24:49;;;;;;;7.83;4.17;;;9.10;1.00;;;;;;4871324;29;20201;-65
2023/09/24 05:27:17;;;;;;;6.77;4.73;;;9.10;1.00;;;;;;4878853;29;20217;-67
2023/09/24 05:29:48;;;;;;;6.30;4.60;;;9.20;1.00;;;;;;4873957;29;20249;-67
2023/09/24 05:32:15;;;;;;;7.63;4.87;;;9.30;1.00;;;;;;4881522;29;20231;-67
2023/09/24 05:34:43;;;;;;;8.17;5.27;;;9.30;1.00;;;;;;4877324;29;20205;-67
2023/09/24 05:37:10;;;;;;;10.40;5.40;;;9.40;1.00;;;;;;4867820;29;20193;-67
2023/09/24 05:39:37;;;;;;;7.70;4.73;;;9.40;1.00;;;;;;4878453;29;20275;-70
2023/09/24 05:42:05;;;;;;;8.77;5.10;;;9.50;1.00;;;;;;4877875;29;20573;-67
2023/09/24 05:44:34;;;;;;;9.27;5.23;;;9.60;1.00;;;;;;4876573;29;20212;-68
2023/09/24 05:47:02;;;;;;;8.10;5.97;;;9.60;99.90;;;;;;4875664;29;20615;-69
2023/09/24 05:49:29;;;;;;;8.13;5.43;;;9.70;99.90;;;;;;4875279;29;20269;-67
2023/09/24 05:51:56;;;;;;;11.80;5.67;;;9.90;99.90;;;;;;4876864;29;20735;-69
2023/09/24 05:54:24;;;;;;;7.93;6.07;;;11.40;99.90;;;;;;4873946;29;20274;-70
2023/09/24 05:56:50;;;;;;;15.07;7.40;;;13.20;99.90;;;;;;4872207;29;20308;-66
2023/09/24 05:59:19;;;;;;;12.00;7.73;;;14.50;99.90;;;;;;4876093;29;20284;-68
2023/09/24 06:01:46;;;;;;;11.30;7.33;;;15.60;99.90;;;;;;4883222;29;20694;-67
2023/09/24 06:04:13;;;;;;;8.53;4.43;;;16.00;99.90;;;;;;4877672;29;20224;-67
2023/09/24 06:06:41;;;;;;;5.07;3.65;;;16.90;99.90;;;;;;4872101;29;20214;-68
2023/09/24 06:09:09;;;;;;;4.10;2.80;;;17.80;99.90;;;;;;4873531;29;20765;-68
2023/09/24 06:11:37;;;;;;;4.18;2.60;;;18.30;99.90;;;;;;4877786;29;20198;-71
2023/09/24 06:14:10;;;;;;;5.60;3.17;;;18.90;99.90;;;;;;4890733;29;20289;-68
2023/09/24 06:16:37;;;;;;;3.72;3.13;;;19.60;99.90;;;;;;4873368;29;20690;-68
2023/09/24 06:19:06;;;;;;;6.72;3.55;;;19.80;99.90;;;;;;4888581;29;20214;-67
2023/09/24 06:21:33;;;;;;;5.70;3.05;;;20.70;99.90;;;;;;4879454;29;20197;-66
2023/09/24 06:24:00;;;;;;;2.97;2.67;;;21.70;99.90;;;;;;4870644;29;20258;-66
2023/09/24 06:26:30;;;;;;;4.25;3.08;;;21.90;99.90;;;;;;4874454;29;20285;-73
2023/09/24 06:28:57;;;;;;;6.30;3.00;;;22.80;99.90;;;;;;4875214;29;20702;-70
2023/09/24 06:31:38;;;;;;;5.40;3.30;;;23.70;99.90;;;;;;4888125;29;20212;-70
2023/09/24 06:34:16;;;;;;;7.05;3.30;;;24.20;99.90;;;;;;4888257;29;20228;-70
2023/09/24 06:36:43;;;;;;;4.45;2.80;;;24.60;99.90;;;;;;4877822;29;20218;-69
2023/09/24 06:39:13;;;;;;;4.03;3.20;;;25.10;99.90;;;;;;4868421;29;20204;-69
2023/09/24 06:41:41;;;;;;;3.55;2.97;;;25.60;99.90;;;;;;4883740;29;20209;-69
2023/09/24 06:44:13;;;;;;;3.88;3.10;;;25.90;99.90;;;;;;4885620;29;20201;-70
2023/09/24 06:46:41;;;;;;;5.80;3.30;;;24.50;99.90;;;;;;4867817;29;20222;-68
2023/09/24 06:49:08;;;;;;;3.10;2.80;;;24.90;99.90;;;;;;4881015;29;20880;-69
2023/09/24 06:51:35;;;;;;;4.10;2.90;;;25.80;99.90;;;;;;4872670;29;20194;-69
2023/09/24 06:54:02;;;;;;;4.00;3.20;;;26.10;99.90;;;;;;4869326;29;20208;-69
2023/09/24 06:56:29;;;;;;;4.03;2.97;;;26.80;99.90;;;;;;4871117;29;20305;-69
2023/09/24 06:58:56;;;;;;;5.40;3.30;;;26.60;99.90;;;;;;4869642;29;20745;-69
2023/09/24 07:01:23;;;;;;;6.95;3.25;;;26.80;99.90;;;;;;4872573;29;20634;-69
2023/09/24 07:03:51;;;;;;;4.15;3.05;;;27.50;99.90;;;;;;4869414;29;20484;-69
2023/09/24 07:06:21;;;;;;;5.78;3.58;;;25.20;99.90;;;;;;4869613;29;20208;-70
2023/09/24 07:08:50;;;;;;;4.30;3.22;;;24.10;99.90;;;;;;4871713;29;20205;-71
2023/09/24 07:11:31;;;;;;;5.75;3.83;;;22.40;99.90;;;;;;4871027;29;20220;-69
2023/09/24 07:13:58;;;;;;;6.05;4.18;;;22.50;99.90;;;;;;4884868;29;20233;-69
2023/09/24 07:16:26;;;;;;;8.18;4.00;;;22.20;99.90;;;;;;4871584;29;20206;-69
2023/09/24 07:18:56;;;;;;;5.90;3.85;;;23.40;99.90;;;;;;4870276;29;20202;-70
2023/09/24 07:21:26;;;;;;;9.77;3.92;;;26.10;99.90;;;;;;4874745;29;20281;-69
2023/09/24 07:24:02;;;;;;;7.38;4.07;;;25.10;99.90;;;;;;4872216;29;20277;-69
2023/09/24 07:26:29;;;;;;;10.77;5.03;;;24.40;99.90;;;;;;4871942;29;20221;-66
2023/09/24 07:29:00;;;;;;;11.82;5.47;;;25.00;99.90;;;;;;4871953;29;20198;-68
2023/09/24 07:31:31;;;;;;;7.20;4.03;;;24.40;99.90;;;;;;4882815;29;20190;-67
2023/09/24 07:34:00;;;;;;;7.80;4.22;;;25.10;99.90;;;;;;4870960;29;20753;-67
2023/09/24 07:36:32;;;;;;;5.32;3.53;;;27.10;99.90;;;;;;4868874;29;20295;-71
2023/09/24 07:39:11;;;;;;;4.88;3.25;;;27.30;99.90;;;;;;4869513;29;20269;-70
2023/09/24 07:41:38;;;;;;;4.10;3.28;;;27.80;99.90;;;;;;4869700;29;20205;-68
2023/09/24 07:44:06;;;;;;;23.40;12.60;;;26.30;99.90;;;;;;4871253;29;20206;-70
2023/09/24 07:46:34;;;;;;;7.50;3.55;;;24.60;99.90;;;;;;4872683;29;20194;-73
2023/09/24 07:49:05;;;;;;;11.65;6.10;;;24.00;99.90;;;;;;4871419;29;20204;-71
2023/09/24 07:51:32;;;;;;;24.98;14.23;;;24.60;99.90;;;;;;4872114;29;20194;-73
2023/09/24 07:54:00;;;;;;;4.47;3.00;;;24.70;99.90;;;;;;4872676;29;20186;-71
2023/09/24 07:56:27;;;;;;;7.03;3.70;;;25.20;99.90;;;;;;4870462;29;20197;-71
2023/09/24 07:58:55;;;;;;;5.80;3.13;;;25.20;99.90;;;;;;4871159;29;20193;-71
2023/09/24 08:01:22;;;;;;;4.45;3.15;;;24.20;99.90;;;;;;4870650;29;20197;-71
2023/09/24 08:03:51;;;;;;;3.10;2.88;;;25.50;99.90;;;;;;4870646;29;20687;-71
2023/09/24 08:06:20;;;;;;;4.57;2.95;;;25.90;99.80;;;;;;4869453;29;20289;-73
2023/09/24 08:08:47;;;;;;;7.55;3.08;;;26.10;99.10;;;;;;4870422;29;20211;-70
2023/09/24 08:11:22;;;;;;;6.80;3.85;;;27.10;99.90;;;;;;4872326;29;20694;-71
2023/09/24 08:13:50;;;;;;;12.93;3.42;;;26.00;99.90;;;;;;4868509;29;20241;-69
2023/09/24 08:16:20;;;;;;;6.20;3.45;;;25.00;99.90;;;;;;4867593;29;20254;-70
2023/09/24 08:18:48;;;;;;;5.47;3.45;;;27.90;99.90;;;;;;4872132;29;20194;-71
2023/09/24 08:21:16;;;;;;;3.78;3.10;;;26.50;96.50;;;;;;4876400;29;20209;-71
2023/09/24 08:23:43;;;;;;;6.68;3.15;;;28.40;99.70;;;;;;4858393;29;20642;-71
2023/09/24 08:26:10;;;;;;;3.25;3.00;;;27.60;97.90;;;;;;4874168;29;20299;-69
2023/09/24 08:28:37;;;;;;;7.22;3.22;;;27.30;98.10;;;;;;4872245;29;20251;-72
2023/09/24 08:31:09;;;;;;;7.28;2.78;;;26.10;97.70;;;;;;4871742;29;20262;-72
2023/09/24 08:33:36;;;;;;;5.38;3.00;;;26.80;96.50;;;;;;4867881;29;20312;-72
2023/09/24 08:36:12;;;;;;;3.95;2.85;;;27.10;95.30;;;;;;4872261;29;20309;-73
2023/09/24 08:38:39;;;;;;;3.33;2.50;;;25.30;96.00;;;;;;4874942;29;20197;-68
2023/09/24 08:41:13;;;;;;;3.50;2.92;;;23.20;96.70;;;;;;4853743;29;20230;-69
2023/09/24 08:43:42;;;;;;;4.75;3.20;;;22.20;99.90;;;;;;4866444;29;20198;-70
2023/09/24 08:46:10;;;;;;;3.95;3.25;;;25.20;99.90;;;;;;4868253;29;20195;-65
2023/09/24 08:48:42;;;;;;;5.65;3.00;;;27.80;98.10;;;;;;4867746;29;20689;-65
2023/09/24 08:51:09;;;;;;;7.70;3.53;;;29.20;96.50;;;;;;4867868;29;20209;-65
2023/09/24 08:53:39;;;;;;;3.63;2.80;;;29.20;92.50;;;;;;4865486;29;20267;-67
2023/09/24 08:56:07;;;;;;;3.55;2.65;;;26.20;91.90;;;;;;4854696;29;20228;-66
2023/09/24 08:58:37;;;;;;;2.80;2.40;;;25.50;93.60;;;;;;4873924;29;20714;-65
2023/09/24 09:01:08;;;;;;;3.63;2.50;;;27.00;97.00;;;;;;4868996;29;20213;-65
2023/09/24 09:03:36;;;;;;;4.38;2.90;;;26.60;95.10;;;;;;4866959;29;20620;-65
2023/09/24 09:06:03;;;;;;;6.05;2.80;;;27.80;94.10;;;;;;4875551;29;20197;-65
2023/09/24 09:08:53;;;;;;;5.35;3.20;;;29.70;93.20;;;;;;4870482;29;20212;-67
2023/09/24 09:11:22;;;;;;;3.17;2.83;;;29.90;90.50;;;;;;4863459;29;20218;-65
2023/09/24 09:13:50;;;;;;;6.07;3.80;;;28.40;91.50;;;;;;4877232;29;20255;-65
2023/09/24 09:16:20;;;;;;;6.97;3.83;;;32.50;99.90;;;;;;4866327;29;20201;-66
2023/09/24 09:19:00;;;;;;;4.85;2.83;;;33.50;90.10;;;;;;4875236;29;20200;-67
2023/09/24 09:21:27;;;;;;;3.08;2.42;;;32.60;82.70;;;;;;4879105;29;20209;-66
2023/09/24 09:23:55;;;;;;;4.57;3.08;;;30.90;82.70;;;;;;4882035;29;20206;-64
2023/09/24 09:26:27;;;;;;;7.45;3.85;;;31.00;81.70;;;;;;4880891;29;20224;-64
2023/09/24 09:28:55;;;;;;;7.90;3.05;;;33.40;81.60;;;;;;4883162;29;20732;-65
2023/09/24 09:31:22;;;;;;;8.82;3.00;;;29.70;78.20;;;;;;4883843;29;20681;-64
2023/09/24 09:33:49;;;;;;;3.08;2.63;;;29.60;82.60;;;;;;4885198;29;20228;-65
2023/09/24 09:36:24;;;;;;;3.85;3.53;;;30.70;81.60;;;;;;4876030;29;20236;-67
2023/09/24 09:38:52;;;;;;;3.92;2.83;;;33.80;82.30;;;;;;4885282;29;20189;-66
2023/09/24 09:41:21;;;;;;;3.13;2.50;;;32.40;77.80;;;;;;4871032;29;21215;-67
2023/09/24 09:43:52;;;;;;;3.05;2.40;;;33.00;75.40;;;;;;4886137;29;20575;-63
2023/09/24 09:46:23;;;;;;;7.70;2.50;;;29.30;76.60;;;;;;4882753;29;20213;-68
2023/09/24 09:49:05;;;;;;;4.20;2.50;;;29.70;78.90;;;;;;4884425;29;20197;-69
2023/09/24 09:51:52;;;;;;;4.03;3.00;;;30.50;81.10;;;;;;4884383;29;20232;-71
2023/09/24 09:54:22;;;;;;;4.05;2.50;;;34.70;81.90;;;;;;4879382;29;20745;-74
2023/09/24 09:56:50;;;;;;;3.08;2.40;;;32.00;75.00;;;;;;4877936;29;20320;-69
2023/09/24 09:59:19;;;;;;;3.25;2.65;;;30.70;74.20;;;;;;4885292;29;20252;-68
2023/09/24 10:01:46;;;;;;;6.50;2.80;;;30.60;75.50;;;;;;4878798;29;20213;-70
2023/09/24 10:04:14;;;;;;;4.63;2.60;;;29.20;72.30;;;;;;4881018;29;20216;-71
2023/09/24 10:06:41;;;;;;;3.05;2.60;;;30.50;80.90;;;;;;4883141;29;20201;-69
2023/09/24 10:09:27;;;;;;;2.75;2.47;;;32.70;77.90;;;;;;4873843;29;20202;-70
2023/09/24 10:11:55;;;;;;;3.05;2.75;;;33.50;76.30;;;;;;4868148;29;20205;-71
2023/09/24 10:14:34;;;;;;;3.33;2.30;;;32.30;68.90;;;;;;4877259;29;20238;-70
2023/09/24 10:17:20;;;;;;;3.40;2.80;;;33.50;75.50;;;;;;4875633;29;20729;-70
2023/09/24 10:20:06;;;;;;;6.20;3.47;;;35.20;74.00;;;;;;4874432;29;20208;-70
2023/09/24 10:22:35;;;;;;;3.05;2.50;;;33.80;64.60;;;;;;4873340;29;20204;-69
2023/09/24 10:25:32;;;;;;;2.20;2.05;;;33.10;66.50;;;;;;4859542;29;20214;-69
2023/09/24 10:28:07;;;;;;;3.53;3.00;;;32.00;60.20;;;;;;4860406;29;20190;-71
2023/09/24 10:31:04;;;;;;;4.22;2.70;;;34.50;78.40;;;;;;4875105;29;20223;-70
2023/09/24 10:33:55;;;;;;;2.85;2.22;;;32.90;69.30;;;;;;4870132;29;20230;-68
2023/09/24 10:36:30;;;;;;;4.50;2.60;;;33.60;71.80;;;;;;4870511;29;20205;-69
2023/09/24 10:39:00;;;;;;;3.53;2.38;;;31.20;70.60;;;;;;4873756;29;20221;-69
2023/09/24 10:41:27;;;;;;;4.43;2.72;;;30.10;75.60;;;;;;4875643;29;20209;-69
2023/09/24 10:44:33;;;;;;;2.88;2.60;;;29.30;76.90;;;;;;4872184;29;20552;-69
2023/09/24 10:47:27;;;;;;;3.25;2.72;;;30.60;80.50;;;;;;4875537;29;20205;-69
2023/09/24 10:50:03;;;;;;;3.08;2.47;;;31.40;74.00;;;;;;4872994;29;20202;-70
2023/09/24 10:52:50;;;;;;;3.17;2.42;;;27.00;76.20;;;;;;4867159;29;20229;-69
2023/09/24 10:55:18;;;;;;;3.33;2.38;;;30.40;81.50;;;;;;4853759;29;21414;-64
2023/09/24 10:57:46;;;;;;;2.50;2.30;;;31.00;88.30;;;;;;4875428;29;20221;-66
2023/09/24 11:00:17;;;;;;;2.63;2.42;;;28.40;82.40;;;;;;4878200;29;20214;-66
2023/09/24 11:02:45;;;;;;;2.65;2.25;;;26.70;83.00;;;;;;4865440;29;20300;-65
2023/09/24 11:05:13;;;;;;;2.85;2.40;;;27.30;85.80;;;;;;4881263;29;20296;-69
2023/09/24 11:07:40;;;;;;;2.58;2.10;;;25.80;73.80;;;;;;4874749;29;20767;-69
2023/09/24 11:10:07;;;;;;;4.60;2.50;;;24.80;77.50;;;;;;4873296;29;20193;-71
2023/09/24 11:12:34;;;;;;;3.15;2.10;;;26.30;85.90;;;;;;4876460;29;20205;-69
2023/09/24 11:15:02;;;;;;;3.95;2.67;;;27.20;79.00;;;;;;4875482;29;20305;-69
2023/09/24 11:17:32;;;;;;;3.10;2.17;;;29.90;83.00;;;;;;4872843;29;20193;-68
2023/09/24 11:19:59;;;;;;;2.70;2.50;;;28.90;73.10;;;;;;4862791;29;20233;-67
2023/09/24 11:22:27;;;;;;;2.50;2.30;;;26.60;72.40;;;;;;4874920;29;20210;-69
2023/09/24 11:25:11;;;;;;;2.35;2.15;;;25.00;73.30;;;;;;4874071;29;20595;-71
2023/09/24 11:27:52;;;;;;;2.55;2.40;;;25.30;75.00;;;;;;4871410;29;20216;-68
2023/09/24 11:30:21;;;;;;;4.13;2.40;;;24.70;74.80;;;;;;4865567;29;20212;-70
2023/09/24 11:32:51;;;;;;;2.30;2.10;;;24.50;73.10;;;;;;4865629;29;20221;-72
2023/09/24 11:35:20;;;;;;;3.83;2.22;;;25.00;80.70;;;;;;4874809;29;20207;-69
2023/09/24 11:37:53;;;;;;;3.05;2.20;;;24.80;75.90;;;;;;4878774;29;20213;-69
2023/09/24 11:40:29;;;;;;;4.30;2.35;;;24.20;72.30;;;;;;4862753;29;20209;-69
2023/09/24 11:43:11;;;;;;;3.05;2.30;;;25.20;76.40;;;;;;4874762;29;20197;-69
2023/09/24 11:45:50;;;;;;;4.70;2.13;;;25.60;74.40;;;;;;4870677;29;20630;-70
2023/09/24 11:48:22;;;;;;;3.90;2.45;;;24.80;72.80;;;;;;4874197;29;20202;-70
2023/09/24 11:50:52;;;;;;;2.22;2.10;;;26.10;71.60;;;;;;4873292;29;20710;-69
2023/09/24 11:53:24;;;;;;;4.03;2.50;;;26.50;67.80;;;;;;4872274;29;20211;-69
2023/09/24 11:55:57;;;;;;;2.42;2.22;;;27.20;64.70;;;;;;4872122;29;21397;-69
2023/09/24 11:58:27;;;;;;;2.70;2.17;;;27.80;65.70;;;;;;4877578;29;20254;-70
2023/09/24 12:00:58;;;;;;;2.45;2.25;;;24.20;61.00;;;;;;4866824;29;20257;-70
2023/09/24 12:03:26;;;;;;;2.60;2.08;;;24.80;68.40;;;;;;4856453;29;20228;-75
2023/09/24 12:05:53;;;;;;;3.33;2.40;;;23.80;67.70;;;;;;4864658;29;20636;-70
2023/09/24 12:08:21;;;;;;;2.53;2.33;;;24.40;75.00;;;;;;4873834;29;20205;-69
2023/09/24 12:10:50;;;;;;;3.42;2.58;;;23.20;66.50;;;;;;4870119;29;20792;-68
2023/09/24 12:13:18;;;;;;;2.63;2.42;;;22.90;68.60;;;;;;4865349;29;20293;-70
2023/09/24 12:15:45;;;;;;;2.25;2.13;;;24.80;74.30;;;;;;4871042;29;20652;-64
2023/09/24 12:18:13;;;;;;;2.58;2.38;;;23.30;68.10;;;;;;4870104;29;20197;-64
2023/09/24 12:20:42;;;;;;;2.45;2.25;;;22.30;67.10;;;;;;4866381;29;20225;-65
2023/09/24 12:23:11;;;;;;;2.70;2.30;;;22.60;93.20;;;;;;4861132;29;20208;-64
2023/09/24 12:25:40;;;;;;;2.50;2.30;;;23.10;69.90;;;;;;4873243;29;20785;-68
2023/09/24 12:28:09;;;;;;;3.10;2.42;;;23.20;73.50;;;;;;4850224;29;20206;-62
2023/09/24 12:30:36;;;;;;;3.53;2.30;;;23.50;72.00;;;;;;4879639;29;20213;-65
2023/09/24 12:33:04;;;;;;;2.67;2.20;;;24.10;73.70;;;;;;4874990;29;20595;-64
2023/09/24 12:35:31;;;;;;;2.10;2.00;;;23.30;69.50;;;;;;4867259;29;20194;-64
2023/09/24 12:37:58;;;;;;;3.13;2.38;;;23.80;74.40;;;;;;4873638;29;20212;-64
2023/09/24 12:40:26;;;;;;;2.28;2.15;;;22.80;73.30;;;;;;4872286;29;20298;-64
2023/09/24 12:42:53;;;;;;;2.47;2.28;;;23.10;71.80;;;;;;4873160;29;20193;-64
2023/09/24 12:45:20;;;;;;;2.58;2.33;;;23.30;72.10;;;;;;4870472;29;20220;-64
2023/09/24 12:47:47;;;;;;;3.78;2.60;;;22.60;74.20;;;;;;4874661;29;20202;-64
2023/09/24 12:50:14;;;;;;;2.60;2.40;;;22.80;70.80;;;;;;4871538;29;20591;-64
2023/09/24 12:52:44;;;;;;;3.20;2.50;;;21.90;71.80;;;;;;4861644;29;20695;-65
2023/09/24 12:55:15;;;;;;;2.58;2.38;;;22.00;75.20;;;;;;4872541;29;20833;-66
2023/09/24 12:57:46;;;;;;;2.53;2.28;;;22.70;75.50;;;;;;4873748;29;20195;-64
2023/09/24 13:00:14;;;;;;;3.42;2.42;;;22.10;72.30;;;;;;4859245;29;20488;-67
2023/09/24 13:02:45;;;;;;;2.50;2.30;;;21.90;74.20;;;;;;4864253;29;20210;-65
2023/09/24 13:05:29;;;;;;;2.67;2.47;;;22.40;75.80;;;;;;4844540;29;20270;-64
2023/09/24 13:08:02;;;;;;;2.38;2.17;;;22.80;73.90;;;;;;4871027;29;20209;-66
2023/09/24 13:10:29;;;;;;;2.88;2.40;;;22.00;73.60;;;;;;4871889;29;20202;-63
2023/09/24 13:12:58;;;;;;;2.53;2.33;;;21.40;75.40;;;;;;4872706;29;20611;-70